Time;durP1;ratioP1;P1;durP2;ratioP2;P2;SDS_P1;SDS_P2;PMS_P1;PMS_P2;Temp;Humidity;BMP_temperature;BMP_pressure;BME280_temperature;BME280_humidity;BME280_pressure;Samples;Min_cycle;Max_cycle;Signal;HPM_P1;HPM_P2
2023/04/16 05:19:44;;;;;;;13.07;7.95;;;;;;;11.57;71.73;100800.28;4774550;29;20781;-64
2023/04/16 05:25:03;;;;;;;12.80;8.00;;;;;;;11.78;71.04;100800.06;4966064;28;20226;-63
2023/04/16 05:27:43;;;;;;;11.80;7.87;;;;;;;11.88;70.73;100798.19;4967862;28;20234;-63
2023/04/16 05:30:22;;;;;;;12.67;8.23;;;;;;;11.91;70.42;100805.88;4966009;28;20224;-64
2023/04/16 05:32:58;;;;;;;13.50;8.27;;;;;;;11.93;70.25;100803.91;4965788;28;20210;-63
2023/04/16 05:36:05;;;;;;;16.17;8.70;;;;;;;11.99;69.97;100819.25;4965024;28;20351;-64
2023/04/16 05:38:46;;;;;;;15.80;9.30;;;;;;;12.00;69.88;100815.59;4965309;28;20254;-64
2023/04/16 05:41:21;;;;;;;15.73;9.17;;;;;;;12.03;70.10;100815.31;4969009;28;20203;-63
2023/04/16 05:43:58;;;;;;;15.00;9.37;;;;;;;12.09;70.15;100816.53;4966736;28;20220;-62
2023/04/16 05:46:50;;;;;;;14.33;9.40;;;;;;;12.12;69.82;100818.91;4966946;28;20215;-63
2023/04/16 05:49:31;;;;;;;17.37;9.50;;;;;;;12.14;69.84;100824.91;4967781;28;20218;-64
2023/04/16 05:52:12;;;;;;;15.60;9.60;;;;;;;12.16;69.83;100828.22;4963387;28;20207;-64
2023/04/16 05:55:01;;;;;;;15.63;9.70;;;;;;;12.13;69.97;100826.72;4966753;28;20207;-63
2023/04/16 05:57:39;;;;;;;15.90;9.63;;;;;;;12.16;69.61;100831.72;4965305;28;20733;-64
2023/04/16 06:00:40;;;;;;;16.93;9.80;;;;;;;12.15;69.73;100827.41;4949838;28;20700;-64
2023/04/16 06:03:28;;;;;;;19.20;10.80;;;;;;;12.19;69.65;100830.59;4960060;28;20214;-63
2023/04/16 06:06:04;;;;;;;16.77;11.03;;;;;;;12.19;69.29;100823.47;4966330;28;20664;-64
2023/04/16 06:08:52;;;;;;;16.13;10.17;;;;;;;12.22;69.41;100833.81;4966135;28;20309;-63
2023/04/16 06:11:27;;;;;;;20.23;11.10;;;;;;;12.26;69.20;100832.50;4969064;28;20624;-63
2023/04/16 06:16:53;;;;;;;17.83;10.60;;;;;;;12.36;69.01;100838.59;4969095;28;20695;-64
2023/04/16 06:23:02;;;;;;;19.03;12.40;;;;;;;12.23;69.76;100838.13;4968662;28;20238;-63
2023/04/16 06:25:44;;;;;;;17.37;10.87;;;;;;;12.20;69.86;100846.41;4966762;28;20285;-65
2023/04/16 06:28:23;;;;;;;17.20;10.80;;;;;;;12.18;70.21;100845.72;4966128;28;20231;-63
2023/04/16 06:31:04;;;;;;;21.27;11.80;;;;;;;12.17;70.44;100852.00;4966860;28;20217;-63
2023/04/16 06:33:51;;;;;;;18.90;11.03;;;;;;;12.14;70.66;100854.97;4966931;28;20207;-64
2023/04/16 06:36:30;;;;;;;23.53;12.37;;;;;;;12.14;70.56;100851.50;4966714;28;20207;-64
2023/04/16 06:39:27;;;;;;;18.70;11.30;;;;;;;12.18;70.39;100853.69;4967461;28;20205;-64
2023/04/16 06:42:26;;;;;;;18.30;11.73;;;;;;;12.24;70.19;100852.25;4968168;28;20209;-64
2023/04/16 06:45:38;;;;;;;17.73;11.50;;;;;;;12.18;70.36;100853.69;4885466;29;20229;-64
2023/04/16 06:48:23;;;;;;;21.53;11.80;;;;;;;12.22;70.47;100863.06;4933129;28;20238;-63
2023/04/16 06:51:26;;;;;;;21.40;12.33;;;;;;;12.24;70.67;100861.06;4966770;28;20221;-63
2023/04/16 06:54:01;;;;;;;19.07;12.23;;;;;;;12.22;70.69;100862.22;4964390;28;20214;-64
2023/04/16 06:56:46;;;;;;;20.83;12.23;;;;;;;12.22;70.80;100863.06;4967499;28;20246;-64
2023/04/16 06:59:25;;;;;;;20.70;12.97;;;;;;;12.22;70.65;100863.06;4967113;28;20223;-63
2023/04/16 07:05:28;;;;;;;20.73;12.07;;;;;;;12.29;70.14;100864.13;4966051;28;21012;-65
2023/04/16 07:08:10;;;;;;;22.60;12.33;;;;;;;12.36;70.39;100859.03;4966494;28;20275;-64
2023/04/16 07:10:57;;;;;;;20.20;12.23;;;;;;;12.39;70.11;100864.06;4965577;28;20215;-62
2023/04/16 07:13:40;;;;;;;22.00;12.93;;;;;;;12.38;69.96;100860.56;4963129;28;21011;-65
2023/04/16 07:16:24;;;;;;;20.37;11.27;;;;;;;12.29;70.16;100861.47;4964024;28;20619;-64
2023/04/16 07:19:10;;;;;;;21.60;11.33;;;;;;;12.32;69.81;100863.81;4966355;28;20269;-63
2023/04/16 07:22:06;;;;;;;19.50;11.77;;;;;;;12.44;69.75;100859.97;4945907;28;20219;-64
2023/04/16 07:24:41;;;;;;;19.73;11.07;;;;;;;12.53;69.20;100862.69;4943994;29;20211;-64
2023/04/16 07:31:16;;;;;;;18.40;10.93;;;;;;;12.58;69.09;100871.88;4887544;29;20242;-63
2023/04/16 07:33:58;;;;;;;18.13;10.97;;;;;;;12.50;69.39;100863.81;4947382;28;20313;-65
2023/04/16 07:36:44;;;;;;;16.97;9.83;;;;;;;12.52;69.03;100874.31;4943422;29;20292;-64
2023/04/16 07:39:36;;;;;;;17.53;10.23;;;;;;;12.61;68.78;100874.25;4944874;28;20215;-64
2023/04/16 07:42:21;;;;;;;21.80;10.80;;;;;;;12.62;68.88;100875.09;4946437;28;20211;-63
2023/04/16 07:45:30;;;;;;;20.73;10.93;;;;;;;12.63;68.54;100876.78;4926560;29;20214;-63
2023/04/16 07:48:12;;;;;;;18.47;10.33;;;;;;;12.68;68.59;100874.47;4925729;29;20259;-65
2023/04/16 07:50:49;;;;;;;15.10;9.97;;;;;;;12.72;68.16;100878.53;4927955;29;20208;-64
2023/04/16 07:57:56;;;;;;;17.57;10.00;;;;;;;12.71;68.34;100884.81;4849837;29;20222;-64
2023/04/16 08:00:49;;;;;;;18.23;10.17;;;;;;;12.74;68.46;100885.38;4781579;29;20218;-64
2023/04/16 08:03:29;;;;;;;16.80;9.47;;;;;;;12.75;68.40;100889.69;4849473;29;20588;-63
2023/04/16 08:06:15;;;;;;;14.27;8.63;;;;;;;12.85;68.01;100886.94;4920135;29;20242;-64
2023/04/16 08:08:59;;;;;;;16.47;10.33;;;;;;;12.99;67.49;100894.41;4925594;29;20847;-64
2023/04/16 08:11:47;;;;;;;15.23;9.23;;;;;;;13.04;67.57;100892.09;4926622;29;21055;-64
2023/04/16 08:15:00;;;;;;;14.47;9.07;;;;;;;12.99;67.57;100902.41;4927011;29;20225;-63
2023/04/16 08:18:20;;;;;;;13.90;8.63;;;;;;;12.98;67.40;100908.72;4926170;29;20213;-65
2023/04/16 08:21:16;;;;;;;13.63;8.43;;;;;;;12.98;67.73;100908.72;4942387;29;20244;-64
2023/04/16 08:24:34;;;;;;;13.00;7.73;;;;;;;12.91;68.58;100907.66;4945599;28;20242;-65
2023/04/16 08:27:17;;;;;;;14.53;8.57;;;;;;;12.91;69.65;100918.28;4946270;28;20215;-64
2023/04/16 08:29:58;;;;;;;14.13;8.60;;;;;;;12.91;70.13;100918.28;4947506;28;20241;-64
2023/04/16 08:32:30;;;;;;;14.60;9.00;;;;;;;12.80;70.88;100915.84;4946824;28;20212;-64
2023/04/16 08:35:01;;;;;;;14.03;8.80;;;;;;;12.76;71.92;100930.44;4947316;28;20269;-64
2023/04/16 08:37:45;;;;;;;13.40;8.50;;;;;;;12.75;72.48;100932.25;4946482;28;20209;-64
2023/04/16 08:40:54;;;;;;;15.43;8.47;;;;;;;12.75;73.41;100926.94;4944889;29;20294;-63
2023/04/16 08:46:53;;;;;;;14.57;8.90;;;;;;;12.66;74.41;100935.00;4947645;28;20753;-64
2023/04/16 08:49:27;;;;;;;13.73;8.43;;;;;;;12.66;74.74;100935.00;4948681;29;20223;-62
2023/04/16 08:55:29;;;;;;;16.10;9.77;;;;;;;12.67;74.22;100944.66;4918881;28;20927;-64
2023/04/16 08:58:16;;;;;;;14.13;8.73;;;;;;;12.67;74.20;100949.97;4948997;28;20706;-63
2023/04/16 09:00:58;;;;;;;14.13;9.00;;;;;;;12.68;74.63;100946.31;4945371;28;20584;-64
2023/04/16 09:03:37;;;;;;;16.80;10.07;;;;;;;12.67;75.12;100953.47;4950230;28;20625;-63
2023/04/16 09:06:13;;;;;;;15.77;9.87;;;;;;;12.69;75.42;100942.69;4949827;28;20691;-65
2023/04/16 09:08:46;;;;;;;17.50;10.90;;;;;;;12.72;75.34;100953.03;4947677;28;20322;-64
2023/04/16 09:11:21;;;;;;;16.73;10.03;;;;;;;12.72;75.30;100950.38;4949691;28;20219;-64
2023/04/16 09:14:16;;;;;;;15.80;9.87;;;;;;;12.71;75.97;100954.84;4948682;28;20214;-63
2023/04/16 09:16:59;;;;;;;16.60;10.73;;;;;;;12.66;76.13;100950.97;4946041;28;20222;-64
2023/04/16 09:19:36;;;;;;;18.60;10.10;;;;;;;12.64;76.19;100952.94;4942177;28;20397;-64
2023/04/16 09:22:33;;;;;;;16.23;9.50;;;;;;;12.61;76.28;100956.72;4947294;28;20222;-65
2023/04/16 09:25:03;;;;;;;15.27;9.80;;;;;;;12.65;76.64;100954.63;4943224;28;20223;-63
2023/04/16 09:27:36;;;;;;;16.87;10.03;;;;;;;12.65;76.38;100960.78;4947282;28;20207;-64
2023/04/16 09:30:21;;;;;;;16.30;10.63;;;;;;;12.66;76.00;100957.13;4949505;28;20271;-63
2023/04/16 09:32:53;;;;;;;16.80;10.60;;;;;;;12.70;75.87;100958.50;4946340;29;20207;-62
2023/04/16 09:35:26;;;;;;;18.63;10.90;;;;;;;12.67;75.41;100957.94;4949471;29;20219;-63
2023/04/16 09:38:07;;;;;;;18.80;10.30;;;;;;;12.65;75.38;100965.25;4949019;29;20223;-63
2023/04/16 09:40:46;;;;;;;20.87;11.37;;;;;;;12.62;76.08;100968.22;4947680;28;20291;-64
2023/04/16 09:46:30;;;;;;;19.50;11.30;;;;;;;12.54;76.20;100962.81;4929694;28;20208;-64
2023/04/16 09:49:23;;;;;;;19.50;11.83;;;;;;;12.53;75.97;100967.28;4949030;29;20240;-64
2023/04/16 09:54:52;;;;;;;19.83;11.10;;;;;;;12.49;75.90;100965.09;4948140;29;20700;-64
2023/04/16 09:57:30;;;;;;;18.50;11.00;;;;;;;12.48;76.40;100968.72;4947678;28;20211;-64
2023/04/16 10:03:13;;;;;;;22.40;11.70;;;;;;;12.57;76.36;100979.31;4948661;28;20211;-63
2023/04/16 10:05:55;;;;;;;20.70;11.97;;;;;;;12.53;76.00;100974.44;4947639;28;20208;-64
2023/04/16 10:08:55;;;;;;;18.00;11.33;;;;;;;12.57;76.28;100979.31;4948507;28;20327;-63
2023/04/16 10:11:51;;;;;;;21.70;12.97;;;;;;;12.63;76.30;100985.84;4946951;28;20266;-65
2023/04/16 10:15:03;;;;;;;20.83;11.70;;;;;;;12.66;75.64;100983.75;4946567;28;20208;-65
2023/04/16 10:17:43;;;;;;;18.63;12.40;;;;;;;12.68;76.18;100988.88;4941847;28;20225;-65
2023/04/16 10:23:22;;;;;;;19.37;12.30;;;;;;;12.67;76.07;100990.72;4945046;28;20286;-62
2023/04/16 10:25:57;;;;;;;20.97;12.43;;;;;;;12.67;75.70;100984.56;4948593;28;20222;-62
2023/04/16 10:28:52;;;;;;;21.00;12.77;;;;;;;12.62;75.81;100989.50;4948748;28;20262;-64
2023/04/16 10:31:27;;;;;;;20.83;12.57;;;;;;;12.64;75.56;100985.72;4946605;28;20243;-65
2023/04/16 10:34:11;;;;;;;;;;;;;;;;;;;;;
2023/04/16 10:36:43;;;;;;;20.33;13.10;;;;;;;12.75;75.32;100990.00;4945928;28;20210;-63
2023/04/16 10:40:19;;;;;;;21.90;13.60;;;;;;;12.77;75.07;100993.31;4946502;28;20206;-64
2023/04/16 10:43:07;;;;;;;20.53;12.90;;;;;;;12.74;75.02;100988.31;4940873;28;20314;-63
2023/04/16 10:45:57;;;;;;;21.97;13.17;;;;;;;12.76;74.80;100988.97;4946299;28;20218;-64
2023/04/16 10:48:38;;;;;;;22.13;13.10;;;;;;;12.73;74.26;100989.31;4945553;28;20212;-66
2023/04/16 10:51:40;;;;;;;22.67;13.73;;;;;;;12.73;74.32;100989.31;4946786;28;20624;-64
2023/04/16 10:54:45;;;;;;;20.30;12.80;;;;;;;12.80;74.13;100995.69;4946746;28;20295;-65
2023/04/16 10:57:36;;;;;;;24.13;13.33;;;;;;;12.84;74.34;100990.94;4945244;28;20230;-64
2023/04/16 11:00:31;;;;;;;23.90;13.43;;;;;;;12.85;74.52;100996.06;4945793;28;20236;-64
2023/04/16 11:03:35;;;;;;;26.77;13.63;;;;;;;12.88;74.33;100993.13;4945454;28;20223;-64
2023/04/16 11:09:51;;;;;;;23.27;13.77;;;;;;;12.86;73.92;101000.41;4942460;28;20267;-65
2023/04/16 11:16:17;;;;;;;22.67;13.60;;;;;;;12.93;73.96;100995.34;4944510;28;20247;-63
2023/04/16 11:18:57;;;;;;;19.77;12.87;;;;;;;12.98;73.78;100988.56;4946752;28;20210;-65
2023/04/16 11:21:45;;;;;;;24.60;14.40;;;;;;;13.01;73.28;100993.59;4945567;28;20217;-63
2023/04/16 11:25:01;;;;;;;21.67;14.00;;;;;;;13.08;74.50;100997.31;4946391;28;21151;-69
2023/04/16 11:46:43;;;;;;;22.97;14.83;;;;;;;13.31;73.18;100988.91;4816035;29;20222;-64
2023/04/16 11:55:54;;;;;;;23.37;13.33;;;;;;;13.26;73.64;100989.38;4918173;29;20216;-63
2023/04/16 12:05:26;;;;;;;21.10;13.67;;;;;;;13.24;72.95;100994.00;4850139;29;20248;-64
2023/04/16 12:08:06;;;;;;;19.97;12.90;;;;;;;13.31;73.52;100994.22;4918593;29;20215;-64
2023/04/16 12:14:01;;;;;;;22.77;13.23;;;;;;;13.46;73.32;100998.00;4912035;29;20684;-64
2023/04/16 12:16:48;;;;;;;20.87;13.50;;;;;;;13.57;72.93;100995.94;4919478;29;20204;-64
2023/04/16 12:19:58;;;;;;;23.30;13.30;;;;;;;13.66;72.76;100999.50;4912425;28;20733;-66
2023/04/16 12:27:05;;;;;;;20.53;12.90;;;;;;;13.77;71.92;101001.94;4946216;28;20215;-66
2023/04/16 12:30:38;;;;;;;23.47;13.97;;;;;;;13.80;70.76;101003.47;4950371;29;20593;-66
2023/04/16 12:33:23;;;;;;;21.87;13.03;;;;;;;13.82;70.80;101009.44;4949704;28;20211;-65
2023/04/16 12:35:58;;;;;;;21.30;13.30;;;;;;;13.81;70.27;101008.63;4949286;28;20244;-66
2023/04/16 12:42:04;;;;;;;20.93;13.97;;;;;;;13.96;69.45;101008.91;4920260;28;20281;-66
2023/04/16 12:45:13;;;;;;;22.13;14.67;;;;;;;14.09;68.79;101009.31;4946661;29;20456;-66
2023/04/16 12:48:46;;;;;;;20.43;12.80;;;;;;;14.28;68.56;101006.41;4884326;29;20285;-64
2023/04/16 12:51:22;;;;;;;23.57;14.43;;;;;;;14.40;68.80;101004.34;4930037;29;20241;-67
2023/04/16 12:57:31;;;;;;;22.83;14.67;;;;;;;14.41;67.29;101008.69;4947288;28;20229;-64
2023/04/16 13:00:13;;;;;;;27.93;15.63;;;;;;;14.40;66.69;101012.34;4949659;28;20209;-64
2023/04/16 13:13:07;;;;;;;25.90;15.03;;;;;;;14.24;67.26;101012.25;4919816;29;20223;-64
2023/04/16 13:19:26;;;;;;;27.87;15.63;;;;;;;14.04;68.04;101011.63;4888542;29;20674;-66
2023/04/16 13:26:03;;;;;;;24.47;15.67;;;;;;;14.00;68.52;101018.25;4906768;29;20312;-67
2023/04/16 13:33:19;;;;;;;24.57;15.73;;;;;;;13.92;69.49;101016.38;4898885;29;20304;-67
2023/04/16 13:36:45;;;;;;;23.77;15.40;;;;;;;13.93;69.69;101025.19;4814024;29;20227;-66
2023/04/16 13:47:17;;;;;;;23.10;15.20;;;;;;;13.93;69.47;101022.53;4912986;29;20251;-70
2023/04/16 13:50:00;;;;;;;26.80;16.37;;;;;;;13.91;70.05;101025.34;4964930;29;20232;-70
2023/04/16 13:53:07;;;;;;;26.73;16.23;;;;;;;13.87;70.98;101023.16;4963699;28;20222;-65
2023/04/16 14:22:18;;;;;;;;;;;;;;;;;;;;;
2023/04/16 15:10:42;;;;;;;29.90;18.77;;;;;;;13.90;79.30;101012.16;4789164;29;20236;-72
2023/04/16 15:14:18;;;;;;;;;;;;;;;;;;;;;
2023/04/16 16:32:43;;;;;;;24.60;17.37;;;;;;;13.87;76.55;101039.16;4795344;29;20246;-71
2023/04/16 16:35:24;;;;;;;28.17;17.93;;;;;;;13.83;76.31;101040.44;4794462;29;20224;-70
2023/04/16 16:38:07;;;;;;;26.57;18.40;;;;;;;13.84;75.93;101045.63;4796067;29;20886;-70
2023/04/16 16:40:42;;;;;;;24.07;17.30;;;;;;;13.79;76.65;101037.28;4795420;29;20218;-69
2023/04/16 16:43:18;;;;;;;26.77;18.53;;;;;;;13.73;76.61;101037.88;4831918;29;20217;-74
2023/04/16 16:45:49;;;;;;;28.53;17.63;;;;;;;13.75;77.14;101040.41;4826301;29;20621;-73
2023/04/16 16:48:18;;;;;;;25.67;18.07;;;;;;;13.78;76.96;101048.09;4829624;29;20223;-72
2023/04/16 16:50:46;;;;;;;27.73;17.80;;;;;;;13.78;76.91;101035.59;4830008;29;20243;-69
2023/04/16 16:53:16;;;;;;;28.23;18.20;;;;;;;13.78;76.55;101046.25;4839456;29;20223;-75
2023/04/16 16:55:47;;;;;;;27.87;18.03;;;;;;;13.79;76.36;101044.44;4834180;29;20217;-75
2023/04/16 16:58:29;;;;;;;23.80;17.10;;;;;;;13.82;76.45;101052.94;4829780;29;20231;-74
2023/04/16 17:00:57;;;;;;;24.20;17.43;;;;;;;13.84;76.30;101050.97;4833428;29;20291;-72
2023/04/16 17:03:26;;;;;;;29.30;18.30;;;;;;;13.84;76.67;101045.63;4842310;29;20207;-66
2023/04/16 17:05:58;;;;;;;25.73;18.07;;;;;;;13.90;76.65;101047.66;4884900;29;20217;-63
2023/04/16 17:08:41;;;;;;;22.97;16.30;;;;;;;13.96;74.99;101053.38;4907855;29;20213;-68
2023/04/16 17:11:11;;;;;;;25.77;16.90;;;;;;;13.96;75.05;101059.56;4905807;29;20241;-67
2023/04/16 17:13:47;;;;;;;24.97;17.00;;;;;;;13.99;74.88;101061.06;4908604;29;20227;-68
2023/04/16 17:16:30;;;;;;;25.53;16.53;;;;;;;14.03;73.92;101065.09;4907756;29;20251;-73
2023/04/16 17:19:10;;;;;;;23.93;17.07;;;;;;;14.03;75.00;101065.09;4903955;29;20252;-71
2023/04/16 17:22:07;;;;;;;24.17;16.20;;;;;;;13.96;75.26;101064.88;4912182;29;20236;-71
2023/04/16 17:24:56;;;;;;;22.00;15.47;;;;;;;13.99;74.40;101058.38;4909983;29;21114;-67
2023/04/16 17:27:28;;;;;;;22.43;16.20;;;;;;;13.97;74.49;101071.06;4912737;29;20212;-68
2023/04/16 17:30:11;;;;;;;25.63;17.70;;;;;;;13.94;74.05;101073.03;4912645;29;20280;-66
2023/04/16 17:33:03;;;;;;;27.67;18.37;;;;;;;13.88;76.44;101065.69;4924175;29;20220;-71
2023/04/16 17:35:52;;;;;;;26.43;17.57;;;;;;;13.83;77.40;101072.44;4920924;29;20215;-67
2023/04/16 17:38:38;;;;;;;27.47;17.40;;;;;;;13.80;77.58;101081.59;4910628;29;20243;-75
2023/04/16 17:41:19;;;;;;;26.90;17.57;;;;;;;13.82;76.35;101084.94;4923261;29;20211;-68
2023/04/16 17:43:51;;;;;;;25.20;18.33;;;;;;;13.84;76.51;101082.94;4929850;29;20279;-65
2023/04/16 17:46:24;;;;;;;24.67;17.37;;;;;;;13.82;75.78;101090.25;4928933;29;20712;-70
2023/04/16 17:49:06;;;;;;;31.10;20.63;;;;;;;13.81;76.93;101091.25;4927529;29;20272;-67
2023/04/16 17:51:43;;;;;;;26.00;18.63;;;;;;;13.80;76.63;101089.59;4922216;29;20234;-72
2023/04/16 17:57:43;;;;;;;28.63;17.80;;;;;;;13.82;77.30;101100.09;4906191;29;20255;-71
2023/04/16 18:00:52;;;;;;;;;;;;;;;;;;;;;
2023/04/16 18:04:14;;;;;;;25.10;18.10;;;;;;;13.72;78.33;101110.81;4875932;29;20249;-68
2023/04/16 18:15:23;;;;;;;27.07;18.30;;;;;;;13.68;78.00;101114.81;4789911;29;20239;-68
2023/04/16 18:17:53;;;;;;;27.27;17.53;;;;;;;13.69;79.44;101121.81;4810655;29;20224;-70
2023/04/16 18:20:30;;;;;;;24.20;17.80;;;;;;;13.70;79.99;101120.00;4886723;29;20242;-67
2023/04/16 18:26:33;;;;;;;28.47;18.23;;;;;;;13.49;81.05;101121.13;4825810;29;20228;-72
2023/04/16 18:29:08;;;;;;;28.70;19.67;;;;;;;13.54;79.81;101129.47;4833099;29;20221;-73
2023/04/16 18:40:04;;;;;;;30.37;20.20;;;;;;;13.53;81.15;101135.00;4829813;29;20336;-71
2023/04/16 18:54:57;;;;;;;29.73;19.20;;;;;;;13.48;84.82;101156.72;4811764;29;20744;-71
2023/04/16 19:02:27;;;;;;;27.23;16.67;;;;;;;13.40;84.92;101154.00;4798645;29;20231;-67
2023/04/16 19:05:31;;;;;;;25.47;17.37;;;;;;;13.26;86.85;101151.00;4817978;29;20212;-66
2023/04/16 19:08:33;;;;;;;25.10;17.60;;;;;;;13.15;88.06;101160.03;4824888;29;20216;-69
2023/04/16 19:11:07;;;;;;;25.20;17.07;;;;;;;13.10;87.80;101163.09;4913216;29;20215;-71
2023/04/16 19:13:45;;;;;;;26.37;17.80;;;;;;;13.12;87.34;101161.13;4917988;29;20218;-65
2023/04/16 19:16:36;;;;;;;26.67;17.07;;;;;;;13.16;86.06;101159.88;4921151;29;20208;-66
2023/04/16 19:19:30;;;;;;;23.93;16.07;;;;;;;13.21;85.45;101158.56;4921467;29;20237;-65
2023/04/16 19:22:01;;;;;;;24.27;16.70;;;;;;;13.19;85.11;101156.91;4916041;29;20221;-66
2023/04/16 19:24:30;;;;;;;24.73;16.03;;;;;;;13.18;84.95;101163.25;4922809;29;20249;-67
2023/04/16 19:27:01;;;;;;;21.00;14.17;;;;;;;13.21;84.69;101164.75;4925456;29;20209;-66
2023/04/16 19:29:48;;;;;;;23.27;15.47;;;;;;;13.21;85.08;101163.91;4920779;29;20215;-66
2023/04/16 19:32:39;;;;;;;22.23;15.60;;;;;;;13.24;84.88;101163.63;4924333;29;20252;-65
2023/04/16 19:35:29;;;;;;;23.60;16.40;;;;;;;13.19;85.24;101164.88;4924747;29;20785;-65
2023/04/16 19:37:59;;;;;;;27.07;17.47;;;;;;;13.12;85.53;101166.44;4923298;29;20206;-63
2023/04/16 19:40:29;;;;;;;23.73;16.77;;;;;;;13.10;86.28;101163.09;4920363;29;20208;-70
2023/04/16 19:43:08;;;;;;;25.03;16.57;;;;;;;13.15;86.19;101170.66;4906877;29;20268;-68
2023/04/16 19:45:44;;;;;;;24.43;16.73;;;;;;;13.17;85.62;101163.38;4906445;29;20515;-67
2023/04/16 19:48:16;;;;;;;22.47;16.10;;;;;;;13.20;84.64;101163.06;4902392;29;20208;-66
2023/04/16 19:50:50;;;;;;;23.30;16.07;;;;;;;13.12;84.21;101166.44;4902172;29;20221;-69
2023/04/16 19:53:32;;;;;;;21.67;15.67;;;;;;;13.06;84.67;101167.03;4911062;29;20226;-68
2023/04/16 19:56:35;;;;;;;25.27;15.77;;;;;;;13.09;83.57;101166.75;4908841;29;20221;-66
2023/04/16 19:59:09;;;;;;;23.90;15.57;;;;;;;13.12;82.98;101173.59;4904495;29;20854;-67
2023/04/16 20:01:40;;;;;;;23.67;16.10;;;;;;;13.15;82.66;101176.84;4907538;29;20220;-70
2023/04/16 20:04:24;;;;;;;21.73;15.10;;;;;;;13.16;82.69;101173.19;4907732;29;20560;-69
2023/04/16 20:07:17;;;;;;;26.47;17.17;;;;;;;13.15;83.48;101179.50;4906014;29;20220;-68
2023/04/16 20:09:51;;;;;;;27.40;17.07;;;;;;;13.17;83.09;101177.53;4915957;29;20213;-68
2023/04/16 20:12:32;;;;;;;23.10;15.87;;;;;;;13.15;83.04;101176.84;4915708;29;20303;-69
2023/04/16 20:15:17;;;;;;;23.10;16.73;;;;;;;13.14;83.92;101190.28;4900841;29;20216;-70
2023/04/16 20:18:14;;;;;;;24.90;16.97;;;;;;;13.12;83.71;101184.25;4913005;28;20269;-65
2023/04/16 20:20:47;;;;;;;24.97;16.90;;;;;;;13.10;83.86;101183.56;4926720;29;20209;-68
2023/04/16 20:23:23;;;;;;;22.70;16.43;;;;;;;13.11;83.79;101190.53;4925496;29;20236;-66
2023/04/16 20:26:00;;;;;;;24.57;16.20;;;;;;;13.07;83.96;101183.84;4922723;29;20224;-69
2023/04/16 20:28:43;;;;;;;26.63;16.10;;;;;;;13.07;82.84;101184.69;4875262;29;20225;-64
2023/04/16 20:31:21;;;;;;;22.53;16.03;;;;;;;13.03;83.07;101185.97;4915005;29;20263;-68
2023/04/16 20:33:55;;;;;;;23.00;15.47;;;;;;;13.06;82.44;101182.19;4913342;29;20233;-67
2023/04/16 20:40:28;;;;;;;19.97;14.80;;;;;;;12.97;82.23;101178.56;4813982;29;20217;-69
2023/04/16 20:43:51;;;;;;;23.70;14.27;;;;;;;12.88;83.37;101187.44;4821457;29;20354;-67
2023/04/16 20:46:53;;;;;;;23.73;15.20;;;;;;;12.93;83.05;101193.13;4824354;29;20243;-64
2023/04/16 20:50:47;;;;;;;;;;;;;;;;;;;;;
2023/04/16 20:53:32;;;;;;;21.83;15.47;;;;;;;12.96;83.81;101179.56;4794287;29;20328;-66
2023/04/16 20:56:50;;;;;;;23.53;16.50;;;;;;;12.96;83.10;101176.88;4797893;29;20216;-66
2023/04/16 20:59:32;;;;;;;25.90;16.03;;;;;;;12.97;83.31;101180.38;4853968;29;20211;-67
2023/04/16 21:02:18;;;;;;;24.40;16.83;;;;;;;12.99;83.34;101175.75;4860782;29;20211;-65
2023/04/16 21:05:20;;;;;;;23.47;16.13;;;;;;;13.02;82.26;101180.78;4881875;29;20219;-66
2023/04/16 21:12:08;;;;;;;23.13;16.23;;;;;;;12.97;82.56;101178.56;4903378;29;20209;-67
